createdAt,value
2022-10-08T00:00:44.160Z,68.73
2022-10-08T00:01:44.139Z,68.52
2022-10-08T00:02:44.119Z,69.34
2022-10-08T00:03:44.110Z,69.13
2022-10-08T00:04:44.091Z,68.79
2022-10-08T00:05:44.087Z,68.39
2022-10-08T00:06:44.096Z,68.39
2022-10-08T00:07:44.077Z,68.19
2022-10-08T00:08:44.061Z,68.15
2022-10-08T00:09:44.050Z,67.95
2022-10-08T00:10:44.063Z,68.05
2022-10-08T00:11:44.017Z,67.75
2022-10-08T00:12:44.020Z,68.05
2022-10-08T00:13:44.002Z,67.85
2022-10-08T00:14:43.987Z,67.85
2022-10-08T00:15:44.020Z,67.75
2022-10-08T00:16:43.971Z,67.75
2022-10-08T00:17:43.969Z,67.72
2022-10-08T00:18:43.942Z,67.65
2022-10-08T00:19:43.953Z,67.61
2022-10-08T00:20:44.002Z,67.31
2022-10-08T00:21:43.928Z,67.51
2022-10-08T00:22:43.968Z,67.31
2022-10-08T00:23:44.903Z,67.41
2022-10-08T00:24:43.877Z,67.51
2022-10-08T00:25:43.865Z,66.97
2022-10-08T00:26:43.867Z,66.97
2022-10-08T00:27:43.859Z,66.97
2022-10-08T00:28:43.846Z,66.47
2022-10-08T00:29:43.824Z,67.51
2022-10-08T00:30:43.813Z,67.41
2022-10-08T00:31:43.855Z,67.61
2022-10-08T00:32:43.817Z,67.48
2022-10-08T00:33:43.807Z,66.88
2022-10-08T00:34:43.808Z,66.54
2022-10-08T00:35:43.760Z,66.67
2022-10-08T00:36:43.795Z,66.97
2022-10-08T00:37:43.759Z,67.18
2022-10-08T00:38:43.727Z,67.11
2022-10-08T00:39:43.738Z,67.38
2022-10-08T00:40:43.734Z,67.18
2022-10-08T00:41:43.727Z,67.38
2022-10-08T00:42:43.687Z,67.61
2022-10-08T00:43:43.690Z,67.72
2022-10-08T00:44:43.699Z,67.51
2022-10-08T00:45:43.664Z,67.41
2022-10-08T00:46:43.646Z,67.61
2022-10-08T00:47:43.638Z,67.61
2022-10-08T00:48:43.634Z,68.15
2022-10-08T00:49:43.625Z,68.12
2022-10-08T00:50:43.616Z,67.82
2022-10-08T00:51:43.608Z,67.85
2022-10-08T00:52:43.602Z,67.95
2022-10-08T00:53:43.582Z,67.95
2022-10-08T00:54:43.566Z,68.19
2022-10-08T00:55:43.560Z,68.59
2022-10-08T00:56:43.568Z,68.9
2022-10-08T00:57:43.562Z,69
2022-10-08T00:58:43.562Z,69.1
2022-10-08T00:59:43.561Z,69.2
2022-10-08T01:00:43.508Z,69.3
2022-10-08T01:01:43.487Z,69
2022-10-08T01:02:43.483Z,69
2022-10-08T01:03:43.477Z,69.1
2022-10-08T01:04:43.466Z,69.1
2022-10-08T01:05:43.456Z,69
2022-10-08T01:06:43.476Z,69.3
2022-10-08T01:07:43.441Z,69.07
2022-10-08T01:08:43.450Z,69.07
2022-10-08T01:09:43.435Z,68.76
2022-10-08T01:10:43.400Z,68.87
2022-10-08T01:11:43.420Z,69.17
2022-10-08T01:12:43.390Z,69.37
2022-10-08T01:13:43.371Z,69.47
2022-10-08T01:14:43.350Z,69.07
2022-10-08T01:15:43.357Z,68.76
2022-10-08T01:16:43.362Z,69.07
2022-10-08T01:17:43.364Z,69.07
2022-10-08T01:18:43.315Z,68.93
2022-10-08T01:19:43.305Z,68.63
2022-10-08T01:20:43.295Z,68.76
2022-10-08T01:21:43.301Z,68.83
2022-10-08T01:22:43.302Z,68.43
2022-10-08T01:23:43.266Z,68.52
2022-10-08T01:24:43.252Z,69.24
2022-10-08T01:25:43.237Z,69.03
2022-10-08T01:26:43.226Z,68.6
2022-10-08T01:27:43.240Z,68.19
2022-10-08T01:28:43.212Z,68.09
2022-10-08T01:29:43.218Z,67.99
2022-10-08T01:30:43.187Z,68.12
2022-10-08T01:31:43.201Z,68.32
2022-10-08T01:32:43.190Z,68.43
2022-10-08T01:33:43.278Z,68.29
2022-10-08T01:34:43.245Z,67.99
2022-10-08T01:35:43.153Z,68.09
2022-10-08T01:36:43.128Z,68.12
2022-10-08T01:37:43.173Z,68.43
2022-10-08T01:38:43.111Z,68.63
2022-10-08T01:39:44.101Z,68.83
2022-10-08T01:40:43.101Z,68.83
2022-10-08T01:41:43.131Z,68.73
2022-10-08T01:42:43.085Z,68.83
2022-10-08T01:43:43.087Z,68.93
2022-10-08T01:44:43.080Z,69.24
2022-10-08T01:45:43.061Z,69.44
2022-10-08T01:46:43.053Z,69.03
2022-10-08T01:47:43.027Z,68.7
2022-10-08T01:48:43.014Z,68.16
2022-10-08T01:49:43.039Z,67.76
2022-10-08T01:50:43.046Z,67.35
2022-10-08T01:51:43.013Z,68.09
2022-10-08T01:52:42.985Z,69.07
2022-10-08T01:53:42.961Z,69.47
2022-10-08T01:54:43.034Z,68.93
2022-10-08T01:55:43.052Z,68.93
2022-10-08T01:56:43.952Z,69.13
2022-10-08T01:57:42.948Z,68.73
2022-10-08T01:58:42.904Z,68.7
2022-10-08T01:59:42.895Z,68.4
2022-10-08T02:00:42.890Z,68.29
2022-10-08T02:01:42.902Z,68.19
2022-10-08T02:02:42.890Z,68.19
2022-10-08T02:03:42.863Z,68.19
2022-10-08T02:04:42.881Z,68.29
2022-10-08T02:05:42.852Z,68.49
2022-10-08T02:06:42.829Z,68.49
2022-10-08T02:07:42.814Z,68.4
2022-10-08T02:08:42.812Z,68.49
2022-10-08T02:09:42.801Z,68.83
2022-10-08T02:10:42.792Z,68.93
2022-10-08T02:11:42.801Z,69.34
2022-10-08T02:12:42.778Z,69.37
2022-10-08T02:13:42.815Z,69.57
2022-10-08T02:14:42.749Z,69.68
2022-10-08T02:15:42.732Z,69.78
2022-10-08T02:16:42.727Z,69.57
2022-10-08T02:17:42.703Z,69.03
2022-10-08T02:18:42.691Z,69.03
2022-10-08T02:19:42.673Z,68.63
2022-10-08T02:20:42.679Z,68.93
2022-10-08T02:21:42.660Z,69.37
2022-10-08T02:22:42.641Z,69.44
2022-10-08T02:23:42.638Z,69.03
2022-10-08T02:24:42.640Z,68.83
2022-10-08T02:25:42.675Z,68.63
2022-10-08T02:26:42.624Z,68.52
2022-10-08T02:27:42.605Z,68.83
2022-10-08T02:28:42.653Z,69.07
2022-10-08T02:29:42.616Z,69.68
2022-10-08T02:30:42.585Z,69.57
2022-10-08T02:31:42.552Z,69.57
2022-10-08T02:32:42.549Z,69.24
2022-10-08T02:33:42.533Z,69.03
2022-10-08T02:34:42.516Z,69.03
2022-10-08T02:35:42.513Z,68.93
2022-10-08T02:36:42.517Z,68.83
2022-10-08T02:37:42.492Z,68.83
2022-10-08T02:38:42.475Z,68.96
2022-10-08T02:39:42.461Z,69.24
2022-10-08T02:40:42.455Z,68.73
2022-10-08T02:41:42.451Z,68.63
2022-10-08T02:42:42.428Z,68.49
2022-10-08T02:43:42.440Z,68.4
2022-10-08T02:44:42.432Z,68.52
2022-10-08T02:45:42.407Z,68.4
2022-10-08T02:46:42.415Z,68.29
2022-10-08T02:47:42.469Z,68.19
2022-10-08T02:48:42.399Z,68.16
2022-10-08T02:49:42.415Z,67.55
2022-10-08T02:50:42.374Z,67.55
2022-10-08T02:51:42.334Z,68.19
2022-10-08T02:52:51.060Z,68.4
2022-10-08T02:53:49.937Z,67.96
2022-10-08T02:54:43.328Z,67.96
2022-10-08T02:55:42.300Z,68.19
2022-10-08T02:56:42.308Z,68.4
2022-10-08T02:57:42.286Z,68.46
2022-10-08T02:58:42.280Z,68.43
2022-10-08T02:59:42.288Z,69.24
2022-10-08T03:00:42.320Z,69.1
2022-10-08T03:01:42.241Z,68.8
2022-10-08T03:02:42.227Z,68.29
2022-10-08T03:03:42.225Z,68.49
2022-10-08T03:04:42.237Z,68.49
2022-10-08T03:05:42.182Z,68.16
2022-10-08T03:06:42.178Z,67.85
2022-10-08T03:07:42.186Z,67.72
2022-10-08T03:08:42.154Z,67.42
2022-10-08T03:09:42.148Z,67.65
2022-10-08T03:10:42.144Z,67.76
2022-10-08T03:11:42.117Z,67.65
2022-10-08T03:12:42.108Z,67.65
2022-10-08T03:13:42.098Z,67.96
2022-10-08T03:14:42.093Z,67.85
2022-10-08T03:15:42.136Z,67.96
2022-10-08T03:16:42.079Z,67.82
2022-10-08T03:17:42.075Z,67.62
2022-10-08T03:18:42.168Z,67.62
2022-10-08T03:19:42.064Z,67.42
2022-10-08T03:20:42.503Z,67.76
2022-10-08T03:21:42.046Z,67.96
2022-10-08T03:22:42.026Z,67.85
2022-10-08T03:23:42.017Z,67.85
2022-10-08T03:24:42.001Z,67.76
2022-10-08T03:25:41.976Z,68.16
2022-10-08T03:26:41.997Z,68.7
2022-10-08T03:27:41.971Z,68.56
2022-10-08T03:28:41.947Z,68.36
2022-10-08T03:29:41.936Z,68.26
2022-10-08T03:30:41.925Z,68.46
2022-10-08T03:31:41.941Z,68.8
2022-10-08T03:32:41.952Z,69.31
2022-10-08T03:33:41.902Z,69.2
2022-10-08T03:34:41.886Z,69.1
2022-10-08T03:35:41.891Z,69
2022-10-08T03:36:41.868Z,69.31
2022-10-08T03:37:41.892Z,69
2022-10-08T03:38:41.864Z,69.1
2022-10-08T03:39:41.837Z,69.31
2022-10-08T03:40:41.815Z,69.31
2022-10-08T03:41:41.809Z,69.1
2022-10-08T03:42:41.803Z,69
2022-10-08T03:43:41.785Z,68.77
2022-10-08T03:44:41.773Z,68.56
2022-10-08T03:45:41.777Z,68.77
2022-10-08T03:46:41.769Z,68.36
2022-10-08T03:47:41.821Z,68.02
2022-10-08T03:48:41.730Z,67.93
2022-10-08T03:49:41.730Z,68.02
2022-10-08T03:50:41.724Z,67.82
2022-10-08T03:51:41.726Z,67.79
2022-10-08T03:52:41.688Z,67.05
2022-10-08T03:53:41.719Z,66.95
2022-10-08T03:54:41.730Z,66.52
2022-10-08T03:55:41.669Z,66.01
2022-10-08T03:56:41.651Z,65.67
2022-10-08T03:57:41.636Z,65.37
2022-10-08T03:58:41.626Z,65.57
2022-10-08T03:59:41.631Z,65.57
2022-10-08T04:00:41.608Z,65.27
2022-10-08T04:01:42.608Z,65.24
2022-10-08T04:02:41.623Z,65.14
2022-10-08T04:03:41.607Z,65.14
2022-10-08T04:04:41.582Z,65.37
2022-10-08T04:05:41.563Z,65.37
2022-10-08T04:06:41.544Z,65.47
2022-10-08T04:07:41.542Z,65.47
2022-10-08T04:08:41.542Z,65.47
2022-10-08T04:09:41.534Z,65.27
2022-10-08T04:10:41.518Z,65.27
2022-10-08T04:11:41.513Z,65.07
2022-10-08T04:12:41.494Z,65.37
2022-10-08T04:13:41.487Z,65.37
2022-10-08T04:14:41.486Z,65.27
2022-10-08T04:15:41.448Z,65.37
2022-10-08T04:16:41.456Z,65.78
2022-10-08T04:17:41.512Z,65.78
2022-10-08T04:18:41.457Z,65.67
2022-10-08T04:19:41.465Z,65.34
2022-10-08T04:20:41.476Z,65.04
2022-10-08T04:21:41.440Z,65.44
2022-10-08T04:22:41.416Z,65.14
2022-10-08T04:23:41.369Z,65.34
2022-10-08T04:24:41.354Z,65.34
2022-10-08T04:25:41.358Z,65.24
2022-10-08T04:26:41.361Z,65.24
2022-10-08T04:27:41.341Z,65.24
2022-10-08T04:28:41.353Z,65.37
2022-10-08T04:29:41.331Z,65.67
2022-10-08T04:30:41.297Z,65.88
2022-10-08T04:31:41.293Z,65.67
2022-10-08T04:32:41.278Z,65.98
2022-10-08T04:33:41.306Z,65.98
2022-10-08T04:34:41.265Z,65.98
2022-10-08T04:35:41.335Z,65.75
2022-10-08T04:36:41.232Z,65.44
2022-10-08T04:37:41.230Z,65.78
2022-10-08T04:38:41.230Z,66.18
2022-10-08T04:39:41.213Z,65.75
2022-10-08T04:40:41.196Z,65.64
2022-10-08T04:41:41.194Z,65.54
2022-10-08T04:42:41.202Z,65.31
2022-10-08T04:43:41.171Z,65.14
2022-10-08T04:44:41.153Z,66.18
2022-10-08T04:45:41.132Z,66.72
2022-10-08T04:46:41.117Z,67.55
2022-10-08T04:47:41.164Z,69.54
2022-10-08T04:48:42.107Z,69.95
2022-10-08T04:49:41.128Z,70.69
2022-10-08T04:50:41.100Z,70.89
2022-10-08T04:51:41.101Z,71.44
2022-10-08T04:52:41.061Z,72.08
2022-10-08T04:53:41.061Z,72.28
2022-10-08T04:54:41.072Z,73.33
2022-10-08T04:55:41.040Z,73.33
2022-10-08T04:56:41.033Z,72.78
2022-10-08T04:57:41.005Z,72.55
2022-10-08T04:58:41.024Z,72.34
2022-10-08T04:59:40.995Z,71.94
2022-10-08T05:00:40.970Z,71.73
2022-10-08T05:01:40.976Z,71.84
2022-10-08T05:02:40.992Z,71.84
2022-10-08T05:03:40.949Z,72.34
2022-10-08T05:04:40.957Z,72.38
2022-10-08T05:05:40.942Z,72.78
2022-10-08T05:06:40.914Z,73.19
2022-10-08T05:07:40.906Z,72.99
2022-10-08T05:08:40.902Z,72.78
2022-10-08T05:09:40.892Z,72.78
2022-10-08T05:10:40.881Z,72.89
2022-10-08T05:11:40.869Z,72.99
2022-10-08T05:12:40.866Z,72.99
2022-10-08T05:13:41.833Z,72.99
2022-10-08T05:14:40.825Z,72.89
2022-10-08T05:15:49.396Z,72.96
2022-10-08T05:16:48.361Z,72.75
2022-10-08T05:17:40.790Z,72.34
2022-10-08T05:18:40.776Z,72.34
2022-10-08T05:19:40.772Z,72.68
2022-10-08T05:20:40.758Z,72.89
2022-10-08T05:21:40.754Z,72.96
2022-10-08T05:22:40.738Z,72.75
2022-10-08T05:23:40.728Z,72.99
2022-10-08T05:24:40.716Z,73.29
2022-10-08T05:25:40.705Z,73.6
2022-10-08T05:26:40.714Z,73.7
2022-10-08T05:27:40.684Z,73.93
2022-10-08T05:28:40.675Z,74.34
2022-10-08T05:29:40.669Z,74.44
2022-10-08T05:30:40.669Z,74.44
2022-10-08T05:31:40.641Z,75.79
2022-10-08T05:32:40.636Z,76
2022-10-08T05:33:40.663Z,76.1
2022-10-08T05:34:40.611Z,76
2022-10-08T05:35:40.603Z,76.51
2022-10-08T05:36:40.688Z,76.91
2022-10-08T05:37:40.576Z,76.81
2022-10-08T05:38:40.572Z,76.71
2022-10-08T05:39:40.560Z,76.98
2022-10-08T05:40:40.581Z,77.08
2022-10-08T05:41:40.542Z,76.74
2022-10-08T05:42:40.542Z,76.54
2022-10-08T05:43:40.522Z,76.67
2022-10-08T05:44:40.514Z,76.54
2022-10-08T05:45:40.496Z,77.48
2022-10-08T05:46:40.488Z,77.93
2022-10-08T05:47:40.475Z,79.14
2022-10-08T05:48:49.296Z,79.38
2022-10-08T05:49:40.454Z,79.45
2022-10-08T05:50:40.439Z,79.85
2022-10-08T05:51:40.436Z,79.45
2022-10-08T05:52:40.425Z,79.55
2022-10-08T05:53:40.425Z,78.8
2022-10-08T05:54:40.400Z,78.3
2022-10-08T05:55:40.388Z,78.06
2022-10-08T05:56:40.382Z,77.79
2022-10-08T05:57:40.369Z,77.65
2022-10-08T05:58:40.362Z,77.55
2022-10-08T05:59:40.345Z,77.86
2022-10-08T06:00:40.334Z,78.6
2022-10-08T06:01:47.949Z,78.66
2022-10-08T06:02:40.321Z,78.5
2022-10-08T06:03:40.311Z,78.09
2022-10-08T06:04:40.297Z,78.06
2022-10-08T06:05:40.298Z,77.55
2022-10-08T06:06:40.276Z,77.41
2022-10-08T06:07:40.267Z,77.04
2022-10-08T06:08:40.255Z,77.65
2022-10-08T06:09:40.245Z,77.31
2022-10-08T06:10:40.230Z,77.11
2022-10-08T06:11:40.224Z,76.87
2022-10-08T06:12:40.224Z,76.5
2022-10-08T06:13:40.209Z,76.7
2022-10-08T06:14:40.188Z,76.6
2022-10-08T06:15:40.202Z,77.04
2022-10-08T06:16:40.169Z,77.18
2022-10-08T06:17:40.159Z,77.89
2022-10-08T06:18:40.154Z,77.75
2022-10-08T06:19:40.147Z,77.79
2022-10-08T06:20:40.128Z,78.19
2022-10-08T06:21:40.113Z,77.95
2022-10-08T06:22:40.107Z,77.61
2022-10-08T06:23:40.097Z,77.31
2022-10-08T06:24:40.091Z,77.21
2022-10-08T06:25:40.074Z,77.34
2022-10-08T06:26:40.059Z,77.55
2022-10-08T06:27:40.054Z,77.89
2022-10-08T06:28:40.047Z,78.4
2022-10-08T06:29:40.027Z,78.4
2022-10-08T06:30:40.030Z,78.6
2022-10-08T06:31:40.014Z,78.77
2022-10-08T06:32:39.996Z,78.56
2022-10-08T06:33:39.989Z,78.77
2022-10-08T06:34:39.978Z,78.91
2022-10-08T06:35:39.990Z,79.21
2022-10-08T06:36:39.954Z,79.51
2022-10-08T06:37:39.949Z,79.61
2022-10-08T06:38:39.948Z,79.92
2022-10-08T06:39:39.921Z,80.02
2022-10-08T06:40:39.917Z,79.92
2022-10-08T06:41:39.905Z,79.72
2022-10-08T06:42:39.898Z,79.82
2022-10-08T06:43:39.967Z,80.02
2022-10-08T06:44:39.902Z,79.98
2022-10-08T06:45:39.869Z,79.78
2022-10-08T06:46:39.860Z,79.38
2022-10-08T06:47:39.854Z,79.27
2022-10-08T06:48:39.855Z,79.38
2022-10-08T06:49:39.826Z,79.92
2022-10-08T06:50:39.815Z,79.88
2022-10-08T06:51:39.797Z,79.68
2022-10-08T06:52:39.794Z,79.68
2022-10-08T06:53:39.785Z,79.88
2022-10-08T06:54:39.788Z,79.47
2022-10-08T06:55:39.760Z,79.27
2022-10-08T06:56:39.769Z,79.07
2022-10-08T06:57:39.739Z,78.97
2022-10-08T06:58:39.728Z,79.17
2022-10-08T06:59:39.720Z,79.03
2022-10-08T07:00:39.703Z,78.93
2022-10-08T07:01:39.701Z,78.63
2022-10-08T07:02:39.687Z,78.53
2022-10-08T07:03:39.673Z,78.46
2022-10-08T07:04:39.662Z,79.17
2022-10-08T07:05:39.663Z,79.47
2022-10-08T07:06:39.642Z,80.02
2022-10-08T07:07:39.648Z,80.43
2022-10-08T07:08:39.628Z,80.73
2022-10-08T07:09:39.620Z,80.97
2022-10-08T07:10:39.603Z,81.27
2022-10-08T07:11:39.591Z,81.48
2022-10-08T07:12:39.579Z,81.68
2022-10-08T07:13:39.571Z,81.68
2022-10-08T07:14:39.561Z,81.54
2022-10-08T07:15:39.549Z,81.58
2022-10-08T07:16:39.543Z,81.64
2022-10-08T07:17:39.534Z,81.74
2022-10-08T07:18:39.515Z,81.64
2022-10-08T07:19:39.503Z,81.54
2022-10-08T07:20:39.496Z,81.34
2022-10-08T07:21:39.485Z,81.44
2022-10-08T07:22:39.523Z,81.64
2022-10-08T07:23:39.467Z,81.78
2022-10-08T07:24:39.457Z,81.99
2022-10-08T07:25:39.439Z,81.95
2022-10-08T07:26:39.430Z,81.6
2022-10-08T07:27:39.420Z,80.9
2022-10-08T07:28:39.409Z,81.13
2022-10-08T07:29:39.403Z,81.78
2022-10-08T07:30:39.391Z,82.5
2022-10-08T07:31:39.390Z,82.84
2022-10-08T07:32:39.368Z,82.94
2022-10-08T07:33:39.364Z,83.14
2022-10-08T07:34:39.347Z,83.31
2022-10-08T07:35:39.342Z,83
2022-10-08T07:36:39.333Z,83
2022-10-08T07:37:39.328Z,83
2022-10-08T07:38:39.304Z,83.2
2022-10-08T07:39:39.288Z,83.14
2022-10-08T07:40:39.300Z,83.65
2022-10-08T07:41:39.293Z,83.85
2022-10-08T07:42:39.286Z,83.54
2022-10-08T07:43:39.250Z,83.4
2022-10-08T07:44:39.238Z,83.31
2022-10-08T07:45:39.226Z,83.31
2022-10-08T07:46:39.225Z,82.9
2022-10-08T07:47:39.209Z,82.7
2022-10-08T07:48:39.205Z,82.86
2022-10-08T07:49:39.186Z,82.7
2022-10-08T07:50:39.179Z,82.9
2022-10-08T07:51:39.172Z,82.9
2022-10-08T07:52:39.156Z,83.2
2022-10-08T07:53:39.148Z,83.51
2022-10-08T07:54:39.142Z,83.61
2022-10-08T07:55:39.127Z,83.75
2022-10-08T07:56:39.211Z,83.95
2022-10-08T07:57:39.108Z,83.91
2022-10-08T07:58:39.091Z,83.71
2022-10-08T07:59:39.081Z,84.01
2022-10-08T08:00:39.073Z,83.71
2022-10-08T08:01:39.060Z,83.71
2022-10-08T08:02:39.054Z,83.26
2022-10-08T08:03:39.040Z,83.06
2022-10-08T08:04:39.034Z,82.96
2022-10-08T08:05:39.017Z,82.86
2022-10-08T08:06:39.006Z,82.96
2022-10-08T08:07:39.022Z,82.92
2022-10-08T08:08:38.998Z,82.62
2022-10-08T08:09:38.998Z,82.21
2022-10-08T08:10:38.984Z,82.11
2022-10-08T08:11:39.044Z,81.91
2022-10-08T08:12:38.945Z,82.42
2022-10-08T08:13:38.932Z,82.17
2022-10-08T08:14:38.965Z,81.97
2022-10-08T08:15:38.928Z,81.73
2022-10-08T08:16:38.935Z,81.43
2022-10-08T08:17:38.895Z,81.23
2022-10-08T08:18:38.926Z,80.92
2022-10-08T08:19:38.872Z,81.12
2022-10-08T08:20:38.857Z,81.23
2022-10-08T08:21:38.850Z,81.32
2022-10-08T08:22:38.899Z,81.12
2022-10-08T08:23:38.840Z,80.68
2022-10-08T08:24:38.818Z,80.38
2022-10-08T08:25:38.810Z,80.18
2022-10-08T08:26:38.802Z,80.04
2022-10-08T08:27:38.788Z,79.59
2022-10-08T08:28:38.772Z,79.15
2022-10-08T08:29:38.770Z,78.28
2022-10-08T08:30:38.750Z,78.82
2022-10-08T08:31:38.744Z,79.46
2022-10-08T08:32:38.758Z,79.97
2022-10-08T08:33:38.765Z,79.87
2022-10-08T08:34:38.708Z,80.07
2022-10-08T08:35:38.709Z,79.87
2022-10-08T08:36:38.718Z,79.67
2022-10-08T08:37:38.682Z,79.87
2022-10-08T08:38:38.688Z,79.87
2022-10-08T08:39:38.654Z,79.49
2022-10-08T08:40:38.644Z,78.78
2022-10-08T08:41:38.639Z,78.68
2022-10-08T08:42:38.633Z,78.48
2022-10-08T08:43:38.614Z,78.78
2022-10-08T08:44:38.601Z,78.68
2022-10-08T08:45:38.602Z,78.34
2022-10-08T08:46:38.581Z,78.24
2022-10-08T08:47:38.613Z,77.94
2022-10-08T08:48:38.577Z,77.64
2022-10-08T08:49:38.614Z,77.67
2022-10-08T08:50:38.592Z,77.67
2022-10-08T08:51:38.544Z,77.26
2022-10-08T08:52:38.515Z,77.37
2022-10-08T08:53:38.577Z,77.03
2022-10-08T08:54:38.492Z,77.03
2022-10-08T08:55:38.488Z,76.52
2022-10-08T08:56:38.486Z,76.86
2022-10-08T08:57:38.483Z,77.71
2022-10-08T08:58:38.465Z,77.5
2022-10-08T08:59:38.441Z,77.71
2022-10-08T09:00:38.460Z,77.61
2022-10-08T09:01:38.419Z,77.61
2022-10-08T09:02:38.426Z,77.5
2022-10-08T09:03:38.397Z,77.37
2022-10-08T09:04:38.391Z,76.66
2022-10-08T09:05:38.432Z,76.35
2022-10-08T09:06:38.370Z,76.97
2022-10-08T09:07:38.387Z,76.66
2022-10-08T09:08:38.397Z,76.18
2022-10-08T09:09:38.339Z,75.37
2022-10-08T09:10:38.327Z,74.73
2022-10-08T09:11:38.326Z,74.13
2022-10-08T09:12:38.307Z,74.57
2022-10-08T09:13:38.295Z,74.57
2022-10-08T09:14:38.285Z,75.01
2022-10-08T09:15:38.272Z,75.41
2022-10-08T09:16:38.265Z,75.31
2022-10-08T09:17:38.269Z,74.87
2022-10-08T09:18:38.243Z,74.77
2022-10-08T09:19:38.236Z,75.17
2022-10-08T09:20:38.290Z,75.51
2022-10-08T09:21:38.214Z,75.71
2022-10-08T09:22:38.207Z,75.48
2022-10-08T09:23:38.234Z,74.87
2022-10-08T09:24:38.178Z,74.6
2022-10-08T09:25:38.189Z,74.3
2022-10-08T09:26:38.161Z,74.57
2022-10-08T09:27:38.184Z,74.37
2022-10-08T09:28:38.135Z,74.16
2022-10-08T09:29:38.131Z,74.26
2022-10-08T09:30:38.133Z,73.72
2022-10-08T09:31:38.142Z,72.91
2022-10-08T09:32:38.097Z,71.97
2022-10-08T09:33:38.087Z,72
2022-10-08T09:34:38.079Z,71.7
2022-10-08T09:35:38.090Z,71.7
2022-10-08T09:36:38.060Z,71.67
2022-10-08T09:37:38.057Z,71.26
2022-10-08T09:38:38.036Z,71.57
2022-10-08T09:39:38.025Z,71.67
2022-10-08T09:40:38.028Z,71.13
2022-10-08T09:41:38.011Z,70.73
2022-10-08T09:42:38.048Z,70.49
2022-10-08T09:43:37.995Z,70.29
2022-10-08T09:44:37.980Z,69.89
2022-10-08T09:45:38.075Z,68.91
2022-10-08T09:46:37.972Z,68.51
2022-10-08T09:47:37.973Z,68.11
2022-10-08T09:48:37.948Z,68.21
2022-10-08T09:49:37.957Z,68.14
2022-10-08T09:50:37.914Z,67.8
2022-10-08T09:51:37.916Z,67.5
2022-10-08T09:52:37.896Z,68.01
2022-10-08T09:53:37.924Z,67.5
2022-10-08T09:54:37.875Z,67.2
2022-10-08T09:55:37.861Z,67.6
2022-10-08T09:56:37.852Z,67.03
2022-10-08T09:57:37.839Z,67.74
2022-10-08T09:58:37.857Z,67.13
2022-10-08T09:59:37.829Z,67
2022-10-08T10:00:37.802Z,66.36
2022-10-08T10:01:37.836Z,66.16
2022-10-08T10:02:37.789Z,66.36
2022-10-08T10:03:37.770Z,66.6
2022-10-08T10:04:37.797Z,66.3
2022-10-08T10:05:37.752Z,66.83
2022-10-08T10:06:37.739Z,67.03
2022-10-08T10:07:37.740Z,66.73
2022-10-08T10:08:38.508Z,66.39
2022-10-08T10:09:37.706Z,66.42
2022-10-08T10:10:37.705Z,67.03
2022-10-08T10:11:37.689Z,66.6
2022-10-08T10:12:37.673Z,66.39
2022-10-08T10:13:37.662Z,66.3
2022-10-08T10:14:37.655Z,66.5
2022-10-08T10:15:37.645Z,66.8
2022-10-08T10:16:37.631Z,66.39
2022-10-08T10:17:37.694Z,66.7
2022-10-08T10:18:37.607Z,66.27
2022-10-08T10:19:37.600Z,66.03
2022-10-08T10:20:37.606Z,65.09
2022-10-08T10:21:37.583Z,64.96
2022-10-08T10:22:37.574Z,64.86
2022-10-08T10:23:37.561Z,64.46
2022-10-08T10:24:37.545Z,64.36
2022-10-08T10:25:37.538Z,65.02
2022-10-08T10:26:37.542Z,65.62
2022-10-08T10:27:37.514Z,66.03
2022-10-08T10:28:37.515Z,65.73
2022-10-08T10:29:37.558Z,66.27
2022-10-08T10:30:37.488Z,66.9
2022-10-08T10:31:37.467Z,67.6
2022-10-08T10:32:37.463Z,67.6
2022-10-08T10:33:37.528Z,67.94
2022-10-08T10:34:37.438Z,68.21
2022-10-08T10:35:37.424Z,67.94
2022-10-08T10:36:37.429Z,68.24
2022-10-08T10:37:37.410Z,67.71
2022-10-08T10:38:37.393Z,67.6
2022-10-08T10:39:37.389Z,68.24
2022-10-08T10:40:37.374Z,68.65
2022-10-08T10:41:37.365Z,68.85
2022-10-08T10:42:37.370Z,69.01
2022-10-08T10:43:37.339Z,69.85
2022-10-08T10:44:37.975Z,70.26
2022-10-08T10:45:37.313Z,70.56
2022-10-08T10:46:37.324Z,70.97
2022-10-08T10:47:37.339Z,70.36
2022-10-08T10:48:37.285Z,70.26
2022-10-08T10:49:37.274Z,70.06
2022-10-08T10:50:37.262Z,70.32
2022-10-08T10:51:37.266Z,69.95
2022-10-08T10:52:37.247Z,70.97
2022-10-08T10:53:37.231Z,70.76
2022-10-08T10:54:37.217Z,70.97
2022-10-08T10:55:37.205Z,70.02
2022-10-08T10:56:37.197Z,69.69
2022-10-08T10:57:37.199Z,69.09
2022-10-08T10:58:37.269Z,68.95
2022-10-08T10:59:37.166Z,68.75
2022-10-08T11:00:37.151Z,69.82
2022-10-08T11:01:37.143Z,67.55
2022-10-08T11:02:37.129Z,67.27
2022-10-08T11:03:37.129Z,67.11
2022-10-08T11:04:37.120Z,67.61
2022-10-08T11:05:37.093Z,68.21
2022-10-08T11:06:37.158Z,67.84
2022-10-08T11:07:38.103Z,67.94
2022-10-08T11:08:37.084Z,68.15
2022-10-08T11:09:37.072Z,67.77
2022-10-08T11:10:37.043Z,66.11
2022-10-08T11:11:37.036Z,59.98
2022-10-08T11:12:37.017Z,58.75
2022-10-08T11:13:37.040Z,58.42
2022-10-08T11:14:37.025Z,56.11
2022-10-08T11:15:36.999Z,53.34
2022-10-08T11:16:36.976Z,55.57
2022-10-08T11:17:36.983Z,56.29
2022-10-08T11:18:36.956Z,56.74
2022-10-08T11:19:36.945Z,56.85
2022-10-08T11:20:36.941Z,57.7
2022-10-08T11:21:36.932Z,58.94
2022-10-08T11:22:36.918Z,59.82
2022-10-08T11:23:36.911Z,61.24
2022-10-08T11:24:36.893Z,62.18
2022-10-08T11:25:36.909Z,62.3
2022-10-08T11:26:36.873Z,63.04
2022-10-08T11:27:36.864Z,63.27
2022-10-08T11:28:36.848Z,63.67
2022-10-08T11:29:36.845Z,63.47
2022-10-08T11:30:36.833Z,63.98
2022-10-08T11:31:36.817Z,63.81
2022-10-08T11:32:36.809Z,63.9
2022-10-08T11:33:36.796Z,64.61
2022-10-08T11:34:36.785Z,64.31
2022-10-08T11:35:36.775Z,63.7
2022-10-08T11:36:36.790Z,63.78
2022-10-08T11:37:36.766Z,63.67
2022-10-08T11:38:36.743Z,63.67
2022-10-08T11:39:36.731Z,63.68
2022-10-08T11:40:36.726Z,60.69
2022-10-08T11:41:36.711Z,54.64
2022-10-08T11:42:36.720Z,51.4
2022-10-08T11:43:36.694Z,48.89
2022-10-08T11:44:36.683Z,47.16
2022-10-08T11:45:36.678Z,46.42
2022-10-08T11:46:36.672Z,46.09
2022-10-08T11:47:36.651Z,45.79
2022-10-08T11:48:36.639Z,45.57
2022-10-08T11:49:36.637Z,45.16
2022-10-08T11:50:36.637Z,46.31
2022-10-08T11:51:36.621Z,49.23
2022-10-08T11:52:36.599Z,51.72
2022-10-08T11:53:36.587Z,53.42
2022-10-08T11:54:36.582Z,55.43
2022-10-08T11:55:36.583Z,56.71
2022-10-08T11:56:36.562Z,57.46
2022-10-08T11:57:36.561Z,58.2
2022-10-08T11:58:36.536Z,58.53
2022-10-08T11:59:36.525Z,58.88
2022-10-08T12:00:36.510Z,59.48
2022-10-08T12:01:36.502Z,59.69
2022-10-08T12:02:36.494Z,59.62
2022-10-08T12:03:36.482Z,59.52
2022-10-08T12:04:36.471Z,59.52
2022-10-08T12:05:36.458Z,59.52
2022-10-08T12:06:36.496Z,59.04
2022-10-08T12:07:36.436Z,59.24
2022-10-08T12:08:36.429Z,59.44
2022-10-08T12:09:36.418Z,59.34
2022-10-08T12:10:36.410Z,59.44
2022-10-08T12:11:36.400Z,59.77
2022-10-08T12:12:36.388Z,59.97
2022-10-08T12:13:36.374Z,60.17
2022-10-08T12:14:36.361Z,59.97
2022-10-08T12:15:36.350Z,59.88
2022-10-08T12:16:36.342Z,59.88
2022-10-08T12:17:36.364Z,59.84
2022-10-08T12:18:36.326Z,59.84
2022-10-08T12:19:36.312Z,59.97
2022-10-08T12:20:36.302Z,60.17
2022-10-08T12:21:36.291Z,59.52
2022-10-08T12:22:36.276Z,59.52
2022-10-08T12:23:36.268Z,59.62
2022-10-08T12:24:36.263Z,59.95
2022-10-08T12:25:36.244Z,59.64
2022-10-08T12:26:36.235Z,59.92
2022-10-08T12:27:36.240Z,59.92
2022-10-08T12:28:36.213Z,59.82
2022-10-08T12:29:36.222Z,60.32
2022-10-08T12:30:36.208Z,59.03
2022-10-08T12:31:36.212Z,55.63
2022-10-08T12:32:36.177Z,51.97
2022-10-08T12:33:36.175Z,49.87
2022-10-08T12:34:36.179Z,48.95
2022-10-08T12:35:36.232Z,48.65
2022-10-08T12:36:36.131Z,48.18
2022-10-08T12:37:36.127Z,49.87
2022-10-08T12:38:36.112Z,51.64
2022-10-08T12:39:36.101Z,53.02
2022-10-08T12:40:36.093Z,53.9
2022-10-08T12:41:36.084Z,54.65
2022-10-08T12:42:36.078Z,54.75
2022-10-08T12:43:36.059Z,54.38
2022-10-08T12:44:36.049Z,54.6
2022-10-08T12:45:36.039Z,54.28
2022-10-08T12:46:36.041Z,54.28
2022-10-08T12:47:36.016Z,53.67
2022-10-08T12:48:36.007Z,53.45
2022-10-08T12:49:36.007Z,53.32
2022-10-08T12:50:35.987Z,53.39
2022-10-08T12:51:35.972Z,53.42
2022-10-08T12:52:35.964Z,53.45
2022-10-08T12:53:35.957Z,53.67
2022-10-08T12:54:35.940Z,53.88
2022-10-08T12:55:35.931Z,53.88
2022-10-08T12:56:35.925Z,53.75